sensor_id;sensor_type;location;lat;lon;timestamp;P1;durP1;ratioP1;P2;durP2;ratioP2
78799;SDS011;68148;55.328;86.106;2023-04-07T00:01:10;48.28;;;13.15;;
78799;SDS011;68148;55.328;86.106;2023-04-07T00:03:38;47.30;;;12.23;;
78799;SDS011;68148;55.328;86.106;2023-04-07T00:06:04;28.70;;;11.38;;
78799;SDS011;68148;55.328;86.106;2023-04-07T00:08:30;44.92;;;13.68;;
78799;SDS011;68148;55.328;86.106;2023-04-07T00:10:56;34.83;;;10.13;;
78799;SDS011;68148;55.328;86.106;2023-04-07T00:13:21;45.45;;;12.77;;
78799;SDS011;68148;55.328;86.106;2023-04-07T00:15:47;28.55;;;8.35;;
78799;SDS011;68148;55.328;86.106;2023-04-07T00:18:13;18.80;;;6.15;;
78799;SDS011;68148;55.328;86.106;2023-04-07T00:20:39;30.33;;;5.72;;
78799;SDS011;68148;55.328;86.106;2023-04-07T00:23:04;23.65;;;4.38;;
78799;SDS011;68148;55.328;86.106;2023-04-07T00:25:30;14.15;;;4.53;;
78799;SDS011;68148;55.328;86.106;2023-04-07T00:27:56;14.52;;;2.95;;
78799;SDS011;68148;55.328;86.106;2023-04-07T00:30:22;10.13;;;2.97;;
78799;SDS011;68148;55.328;86.106;2023-04-07T00:32:47;8.45;;;3.63;;
78799;SDS011;68148;55.328;86.106;2023-04-07T00:35:13;14.05;;;4.63;;
78799;SDS011;68148;55.328;86.106;2023-04-07T00:37:39;16.35;;;3.88;;
78799;SDS011;68148;55.328;86.106;2023-04-07T00:40:05;19.77;;;5.22;;
78799;SDS011;68148;55.328;86.106;2023-04-07T00:42:32;18.58;;;4.80;;
78799;SDS011;68148;55.328;86.106;2023-04-07T00:44:58;17.52;;;6.03;;
78799;SDS011;68148;55.328;86.106;2023-04-07T00:47:24;13.32;;;5.15;;
78799;SDS011;68148;55.328;86.106;2023-04-07T00:49:50;25.25;;;6.00;;
78799;SDS011;68148;55.328;86.106;2023-04-07T00:52:16;19.55;;;5.00;;
78799;SDS011;68148;55.328;86.106;2023-04-07T00:54:44;8.15;;;3.58;;
78799;SDS011;68148;55.328;86.106;2023-04-07T00:57:28;17.60;;;4.70;;
78799;SDS011;68148;55.328;86.106;2023-04-07T00:59:54;14.00;;;4.70;;
78799;SDS011;68148;55.328;86.106;2023-04-07T01:02:33;18.13;;;4.28;;
78799;SDS011;68148;55.328;86.106;2023-04-07T01:05:11;21.20;;;4.18;;
78799;SDS011;68148;55.328;86.106;2023-04-07T01:07:51;13.35;;;4.20;;
78799;SDS011;68148;55.328;86.106;2023-04-07T01:10:26;14.95;;;4.03;;
78799;SDS011;68148;55.328;86.106;2023-04-07T01:13:04;20.58;;;4.30;;
78799;SDS011;68148;55.328;86.106;2023-04-07T01:15:33;10.05;;;4.60;;
78799;SDS011;68148;55.328;86.106;2023-04-07T01:18:05;15.82;;;4.40;;
78799;SDS011;68148;55.328;86.106;2023-04-07T01:20:37;13.85;;;4.80;;
78799;SDS011;68148;55.328;86.106;2023-04-07T01:23:05;15.35;;;5.53;;
78799;SDS011;68148;55.328;86.106;2023-04-07T01:28:40;20.48;;;4.40;;
78799;SDS011;68148;55.328;86.106;2023-04-07T01:33:46;19.52;;;3.67;;
78799;SDS011;68148;55.328;86.106;2023-04-07T01:36:15;9.50;;;3.85;;
78799;SDS011;68148;55.328;86.106;2023-04-07T01:38:43;16.42;;;5.28;;
78799;SDS011;68148;55.328;86.106;2023-04-07T01:41:10;14.77;;;4.63;;
78799;SDS011;68148;55.328;86.106;2023-04-07T01:43:38;12.07;;;3.95;;
78799;SDS011;68148;55.328;86.106;2023-04-07T01:46:05;16.77;;;4.90;;
78799;SDS011;68148;55.328;86.106;2023-04-07T01:48:31;15.48;;;4.22;;
78799;SDS011;68148;55.328;86.106;2023-04-07T01:50:58;22.92;;;5.13;;
78799;SDS011;68148;55.328;86.106;2023-04-07T01:53:25;27.70;;;5.75;;
78799;SDS011;68148;55.328;86.106;2023-04-07T01:55:52;14.82;;;5.65;;
78799;SDS011;68148;55.328;86.106;2023-04-07T01:58:18;13.80;;;5.13;;
78799;SDS011;68148;55.328;86.106;2023-04-07T02:00:44;12.45;;;5.38;;
78799;SDS011;68148;55.328;86.106;2023-04-07T02:03:12;13.35;;;6.05;;
78799;SDS011;68148;55.328;86.106;2023-04-07T02:05:42;18.30;;;4.90;;
78799;SDS011;68148;55.328;86.106;2023-04-07T02:08:08;20.05;;;5.20;;
78799;SDS011;68148;55.328;86.106;2023-04-07T02:10:36;16.15;;;4.93;;
78799;SDS011;68148;55.328;86.106;2023-04-07T02:13:04;12.13;;;4.55;;
78799;SDS011;68148;55.328;86.106;2023-04-07T02:15:32;19.33;;;4.82;;
78799;SDS011;68148;55.328;86.106;2023-04-07T02:20:27;28.48;;;4.65;;
78799;SDS011;68148;55.328;86.106;2023-04-07T02:22:54;22.95;;;5.13;;
78799;SDS011;68148;55.328;86.106;2023-04-07T02:25:21;26.75;;;6.00;;
78799;SDS011;68148;55.328;86.106;2023-04-07T02:27:52;22.17;;;4.78;;
78799;SDS011;68148;55.328;86.106;2023-04-07T02:30:19;19.67;;;4.47;;
78799;SDS011;68148;55.328;86.106;2023-04-07T02:32:45;15.38;;;4.60;;
78799;SDS011;68148;55.328;86.106;2023-04-07T02:35:11;14.40;;;4.05;;
78799;SDS011;68148;55.328;86.106;2023-04-07T02:37:38;15.35;;;3.65;;
78799;SDS011;68148;55.328;86.106;2023-04-07T02:40:04;14.02;;;4.03;;
78799;SDS011;68148;55.328;86.106;2023-04-07T02:42:31;11.13;;;3.75;;
78799;SDS011;68148;55.328;86.106;2023-04-07T02:44:57;11.65;;;3.28;;
78799;SDS011;68148;55.328;86.106;2023-04-07T02:47:24;11.88;;;3.65;;
78799;SDS011;68148;55.328;86.106;2023-04-07T02:49:50;12.70;;;3.20;;
78799;SDS011;68148;55.328;86.106;2023-04-07T02:52:15;11.63;;;3.40;;
78799;SDS011;68148;55.328;86.106;2023-04-07T02:54:42;11.07;;;3.08;;
78799;SDS011;68148;55.328;86.106;2023-04-07T02:57:08;7.60;;;3.08;;
78799;SDS011;68148;55.328;86.106;2023-04-07T02:59:33;14.27;;;3.47;;
78799;SDS011;68148;55.328;86.106;2023-04-07T03:01:59;15.35;;;3.50;;
78799;SDS011;68148;55.328;86.106;2023-04-07T03:04:27;9.15;;;3.85;;
78799;SDS011;68148;55.328;86.106;2023-04-07T03:06:53;7.10;;;2.58;;
78799;SDS011;68148;55.328;86.106;2023-04-07T03:09:18;11.45;;;2.65;;
78799;SDS011;68148;55.328;86.106;2023-04-07T03:11:44;14.45;;;2.63;;
78799;SDS011;68148;55.328;86.106;2023-04-07T03:14:10;13.93;;;3.15;;
78799;SDS011;68148;55.328;86.106;2023-04-07T03:16:36;8.75;;;2.83;;
78799;SDS011;68148;55.328;86.106;2023-04-07T03:19:01;14.85;;;2.85;;
78799;SDS011;68148;55.328;86.106;2023-04-07T03:21:27;9.60;;;2.58;;
78799;SDS011;68148;55.328;86.106;2023-04-07T03:23:53;4.25;;;2.08;;
78799;SDS011;68148;55.328;86.106;2023-04-07T03:26:19;7.35;;;2.75;;
78799;SDS011;68148;55.328;86.106;2023-04-07T03:28:45;17.67;;;4.25;;
78799;SDS011;68148;55.328;86.106;2023-04-07T03:31:11;9.27;;;3.78;;
78799;SDS011;68148;55.328;86.106;2023-04-07T03:33:36;6.07;;;2.40;;
78799;SDS011;68148;55.328;86.106;2023-04-07T03:36:02;9.93;;;3.17;;
78799;SDS011;68148;55.328;86.106;2023-04-07T03:38:28;9.38;;;3.08;;
78799;SDS011;68148;55.328;86.106;2023-04-07T03:40:54;12.25;;;2.88;;
78799;SDS011;68148;55.328;86.106;2023-04-07T03:43:21;7.70;;;2.95;;
78799;SDS011;68148;55.328;86.106;2023-04-07T03:45:47;11.48;;;3.35;;
78799;SDS011;68148;55.328;86.106;2023-04-07T03:48:13;15.57;;;2.80;;
78799;SDS011;68148;55.328;86.106;2023-04-07T03:50:39;11.75;;;3.20;;
78799;SDS011;68148;55.328;86.106;2023-04-07T03:53:05;16.52;;;3.28;;
78799;SDS011;68148;55.328;86.106;2023-04-07T03:55:34;8.93;;;2.80;;
78799;SDS011;68148;55.328;86.106;2023-04-07T03:58:02;24.27;;;4.07;;
78799;SDS011;68148;55.328;86.106;2023-04-07T04:00:28;28.98;;;3.97;;
78799;SDS011;68148;55.328;86.106;2023-04-07T04:02:55;13.23;;;3.40;;
78799;SDS011;68148;55.328;86.106;2023-04-07T04:05:21;8.65;;;2.97;;
78799;SDS011;68148;55.328;86.106;2023-04-07T04:07:47;12.32;;;3.55;;
78799;SDS011;68148;55.328;86.106;2023-04-07T04:10:12;12.18;;;3.45;;
78799;SDS011;68148;55.328;86.106;2023-04-07T04:12:39;9.10;;;3.72;;
78799;SDS011;68148;55.328;86.106;2023-04-07T04:15:05;17.10;;;3.88;;
78799;SDS011;68148;55.328;86.106;2023-04-07T04:17:31;14.80;;;4.38;;
78799;SDS011;68148;55.328;86.106;2023-04-07T04:19:57;15.85;;;4.38;;
78799;SDS011;68148;55.328;86.106;2023-04-07T04:22:23;21.10;;;3.97;;
78799;SDS011;68148;55.328;86.106;2023-04-07T04:24:48;18.08;;;4.78;;
78799;SDS011;68148;55.328;86.106;2023-04-07T04:27:14;13.85;;;4.97;;
78799;SDS011;68148;55.328;86.106;2023-04-07T04:29:40;16.83;;;4.45;;
78799;SDS011;68148;55.328;86.106;2023-04-07T04:32:06;13.13;;;4.72;;
78799;SDS011;68148;55.328;86.106;2023-04-07T04:34:32;18.77;;;4.65;;
78799;SDS011;68148;55.328;86.106;2023-04-07T04:36:58;20.10;;;5.05;;
78799;SDS011;68148;55.328;86.106;2023-04-07T04:39:24;19.08;;;4.95;;
78799;SDS011;68148;55.328;86.106;2023-04-07T04:41:49;13.70;;;4.38;;
78799;SDS011;68148;55.328;86.106;2023-04-07T04:44:15;18.98;;;4.65;;
78799;SDS011;68148;55.328;86.106;2023-04-07T04:46:41;14.15;;;4.97;;
78799;SDS011;68148;55.328;86.106;2023-04-07T04:49:07;18.88;;;4.80;;
78799;SDS011;68148;55.328;86.106;2023-04-07T04:51:33;19.77;;;4.13;;
78799;SDS011;68148;55.328;86.106;2023-04-07T04:53:59;12.27;;;4.43;;
78799;SDS011;68148;55.328;86.106;2023-04-07T04:56:25;14.60;;;4.50;;
78799;SDS011;68148;55.328;86.106;2023-04-07T04:58:50;27.30;;;4.75;;
78799;SDS011;68148;55.328;86.106;2023-04-07T05:01:16;10.57;;;4.40;;
78799;SDS011;68148;55.328;86.106;2023-04-07T05:03:43;17.65;;;4.50;;
78799;SDS011;68148;55.328;86.106;2023-04-07T05:06:09;20.80;;;4.88;;
78799;SDS011;68148;55.328;86.106;2023-04-07T05:08:34;34.47;;;6.68;;
78799;SDS011;68148;55.328;86.106;2023-04-07T05:11:00;18.02;;;5.32;;
78799;SDS011;68148;55.328;86.106;2023-04-07T05:13:26;21.85;;;5.47;;
78799;SDS011;68148;55.328;86.106;2023-04-07T05:15:53;39.60;;;7.63;;
78799;SDS011;68148;55.328;86.106;2023-04-07T05:18:19;27.13;;;6.53;;
78799;SDS011;68148;55.328;86.106;2023-04-07T05:20:44;25.52;;;6.55;;
78799;SDS011;68148;55.328;86.106;2023-04-07T05:23:13;23.38;;;6.88;;
78799;SDS011;68148;55.328;86.106;2023-04-07T05:25:42;29.50;;;7.18;;
78799;SDS011;68148;55.328;86.106;2023-04-07T05:28:08;31.20;;;7.22;;
78799;SDS011;68148;55.328;86.106;2023-04-07T05:30:33;22.15;;;5.30;;
78799;SDS011;68148;55.328;86.106;2023-04-07T05:32:59;31.48;;;7.30;;
78799;SDS011;68148;55.328;86.106;2023-04-07T05:35:25;40.88;;;17.55;;
78799;SDS011;68148;55.328;86.106;2023-04-07T05:37:51;27.52;;;6.55;;
78799;SDS011;68148;55.328;86.106;2023-04-07T05:40:16;28.25;;;6.60;;
78799;SDS011;68148;55.328;86.106;2023-04-07T05:42:42;18.15;;;5.53;;
78799;SDS011;68148;55.328;86.106;2023-04-07T05:45:09;25.63;;;7.93;;
78799;SDS011;68148;55.328;86.106;2023-04-07T05:47:35;29.00;;;10.43;;
78799;SDS011;68148;55.328;86.106;2023-04-07T05:50:01;23.90;;;6.32;;
78799;SDS011;68148;55.328;86.106;2023-04-07T05:52:26;20.05;;;7.03;;
78799;SDS011;68148;55.328;86.106;2023-04-07T05:54:52;24.27;;;8.27;;
78799;SDS011;68148;55.328;86.106;2023-04-07T05:57:18;28.05;;;6.93;;
78799;SDS011;68148;55.328;86.106;2023-04-07T05:59:48;18.77;;;6.40;;
78799;SDS011;68148;55.328;86.106;2023-04-07T06:02:15;26.95;;;7.07;;
78799;SDS011;68148;55.328;86.106;2023-04-07T06:04:41;22.27;;;6.88;;
78799;SDS011;68148;55.328;86.106;2023-04-07T06:07:07;20.13;;;6.15;;
78799;SDS011;68148;55.328;86.106;2023-04-07T06:09:33;19.90;;;6.68;;
78799;SDS011;68148;55.328;86.106;2023-04-07T06:11:59;28.25;;;10.75;;
78799;SDS011;68148;55.328;86.106;2023-04-07T06:14:26;28.00;;;7.20;;
78799;SDS011;68148;55.328;86.106;2023-04-07T06:16:51;20.33;;;6.50;;
78799;SDS011;68148;55.328;86.106;2023-04-07T06:19:17;19.77;;;6.03;;
78799;SDS011;68148;55.328;86.106;2023-04-07T06:21:43;22.33;;;6.57;;
78799;SDS011;68148;55.328;86.106;2023-04-07T06:24:09;24.42;;;5.82;;
78799;SDS011;68148;55.328;86.106;2023-04-07T06:26:35;18.02;;;5.68;;
78799;SDS011;68148;55.328;86.106;2023-04-07T06:29:01;21.83;;;5.50;;
78799;SDS011;68148;55.328;86.106;2023-04-07T06:31:27;24.52;;;6.68;;
78799;SDS011;68148;55.328;86.106;2023-04-07T06:33:52;31.50;;;6.50;;
78799;SDS011;68148;55.328;86.106;2023-04-07T06:36:19;22.23;;;4.70;;
78799;SDS011;68148;55.328;86.106;2023-04-07T06:38:45;12.98;;;3.63;;
78799;SDS011;68148;55.328;86.106;2023-04-07T06:41:11;22.30;;;5.00;;
78799;SDS011;68148;55.328;86.106;2023-04-07T06:43:37;18.20;;;5.18;;
78799;SDS011;68148;55.328;86.106;2023-04-07T06:46:04;6.68;;;1.67;;
78799;SDS011;68148;55.328;86.106;2023-04-07T06:48:31;8.10;;;3.22;;
78799;SDS011;68148;55.328;86.106;2023-04-07T06:50:56;12.23;;;3.20;;
78799;SDS011;68148;55.328;86.106;2023-04-07T06:53:22;7.35;;;2.25;;
78799;SDS011;68148;55.328;86.106;2023-04-07T06:55:48;6.75;;;2.58;;
78799;SDS011;68148;55.328;86.106;2023-04-07T06:58:27;16.42;;;1.98;;
78799;SDS011;68148;55.328;86.106;2023-04-07T07:00:54;9.52;;;2.80;;
78799;SDS011;68148;55.328;86.106;2023-04-07T07:03:21;9.57;;;1.80;;
78799;SDS011;68148;55.328;86.106;2023-04-07T07:05:47;17.95;;;2.65;;
78799;SDS011;68148;55.328;86.106;2023-04-07T07:08:12;9.50;;;1.30;;
78799;SDS011;68148;55.328;86.106;2023-04-07T07:10:38;18.85;;;2.78;;
78799;SDS011;68148;55.328;86.106;2023-04-07T07:13:04;8.52;;;2.53;;
78799;SDS011;68148;55.328;86.106;2023-04-07T07:15:30;11.63;;;1.95;;
78799;SDS011;68148;55.328;86.106;2023-04-07T07:17:55;7.97;;;2.67;;
78799;SDS011;68148;55.328;86.106;2023-04-07T07:20:22;9.30;;;2.80;;
78799;SDS011;68148;55.328;86.106;2023-04-07T07:22:48;8.00;;;2.15;;
78799;SDS011;68148;55.328;86.106;2023-04-07T07:25:14;7.15;;;1.92;;
78799;SDS011;68148;55.328;86.106;2023-04-07T07:27:39;14.30;;;3.95;;
78799;SDS011;68148;55.328;86.106;2023-04-07T07:30:05;13.77;;;3.58;;
78799;SDS011;68148;55.328;86.106;2023-04-07T07:32:33;11.35;;;3.10;;
78799;SDS011;68148;55.328;86.106;2023-04-07T07:34:59;5.75;;;1.60;;
78799;SDS011;68148;55.328;86.106;2023-04-07T07:37:25;5.25;;;1.88;;
78799;SDS011;68148;55.328;86.106;2023-04-07T07:39:51;5.90;;;2.00;;
78799;SDS011;68148;55.328;86.106;2023-04-07T07:42:17;6.75;;;1.50;;
78799;SDS011;68148;55.328;86.106;2023-04-07T07:44:43;9.40;;;1.75;;
78799;SDS011;68148;55.328;86.106;2023-04-07T07:47:09;2.72;;;1.13;;
78799;SDS011;68148;55.328;86.106;2023-04-07T07:49:35;5.75;;;1.30;;
78799;SDS011;68148;55.328;86.106;2023-04-07T07:52:00;2.10;;;0.85;;
78799;SDS011;68148;55.328;86.106;2023-04-07T07:54:26;5.25;;;3.00;;
78799;SDS011;68148;55.328;86.106;2023-04-07T07:56:55;7.65;;;2.45;;
78799;SDS011;68148;55.328;86.106;2023-04-07T07:59:21;2.40;;;1.20;;
78799;SDS011;68148;55.328;86.106;2023-04-07T08:01:46;11.70;;;1.95;;
78799;SDS011;68148;55.328;86.106;2023-04-07T08:04:13;4.78;;;1.17;;
78799;SDS011;68148;55.328;86.106;2023-04-07T08:06:39;7.95;;;2.72;;
78799;SDS011;68148;55.328;86.106;2023-04-07T08:09:05;4.40;;;1.63;;
78799;SDS011;68148;55.328;86.106;2023-04-07T08:11:31;11.02;;;1.98;;
78799;SDS011;68148;55.328;86.106;2023-04-07T08:13:57;4.60;;;2.10;;
78799;SDS011;68148;55.328;86.106;2023-04-07T08:16:23;8.70;;;1.88;;
78799;SDS011;68148;55.328;86.106;2023-04-07T08:18:49;13.15;;;1.95;;
78799;SDS011;68148;55.328;86.106;2023-04-07T08:21:15;6.50;;;1.85;;
78799;SDS011;68148;55.328;86.106;2023-04-07T08:23:42;3.05;;;1.30;;
78799;SDS011;68148;55.328;86.106;2023-04-07T08:26:08;11.85;;;1.58;;
78799;SDS011;68148;55.328;86.106;2023-04-07T08:28:33;4.55;;;1.63;;
78799;SDS011;68148;55.328;86.106;2023-04-07T08:30:59;3.92;;;1.70;;
78799;SDS011;68148;55.328;86.106;2023-04-07T08:33:25;7.18;;;1.50;;
78799;SDS011;68148;55.328;86.106;2023-04-07T08:35:50;5.00;;;1.20;;
78799;SDS011;68148;55.328;86.106;2023-04-07T08:38:17;7.93;;;2.00;;
78799;SDS011;68148;55.328;86.106;2023-04-07T08:40:43;6.65;;;2.63;;
78799;SDS011;68148;55.328;86.106;2023-04-07T08:43:09;1.95;;;1.10;;
78799;SDS011;68148;55.328;86.106;2023-04-07T08:45:38;3.28;;;0.68;;
78799;SDS011;68148;55.328;86.106;2023-04-07T08:48:24;3.05;;;0.85;;
78799;SDS011;68148;55.328;86.106;2023-04-07T08:50:54;16.90;;;1.58;;
78799;SDS011;68148;55.328;86.106;2023-04-07T08:53:25;2.80;;;1.30;;
78799;SDS011;68148;55.328;86.106;2023-04-07T08:55:57;4.22;;;0.90;;
78799;SDS011;68148;55.328;86.106;2023-04-07T08:58:25;5.72;;;1.40;;
78799;SDS011;68148;55.328;86.106;2023-04-07T09:00:52;1.38;;;0.68;;
78799;SDS011;68148;55.328;86.106;2023-04-07T09:03:18;6.05;;;1.38;;
78799;SDS011;68148;55.328;86.106;2023-04-07T09:05:49;9.05;;;1.60;;
78799;SDS011;68148;55.328;86.106;2023-04-07T09:08:15;14.95;;;2.90;;
78799;SDS011;68148;55.328;86.106;2023-04-07T09:10:41;4.68;;;1.55;;
78799;SDS011;68148;55.328;86.106;2023-04-07T09:13:09;6.78;;;1.88;;
78799;SDS011;68148;55.328;86.106;2023-04-07T09:15:35;10.45;;;2.17;;
78799;SDS011;68148;55.328;86.106;2023-04-07T09:18:03;15.10;;;2.00;;
78799;SDS011;68148;55.328;86.106;2023-04-07T09:20:47;10.82;;;2.28;;
78799;SDS011;68148;55.328;86.106;2023-04-07T09:23:28;11.68;;;2.58;;
78799;SDS011;68148;55.328;86.106;2023-04-07T09:25:57;7.05;;;2.20;;
78799;SDS011;68148;55.328;86.106;2023-04-07T09:28:41;4.00;;;1.52;;
78799;SDS011;68148;55.328;86.106;2023-04-07T09:31:08;4.57;;;1.27;;
78799;SDS011;68148;55.328;86.106;2023-04-07T09:33:34;9.75;;;2.17;;
78799;SDS011;68148;55.328;86.106;2023-04-07T09:36:02;8.80;;;2.65;;
78799;SDS011;68148;55.328;86.106;2023-04-07T09:38:36;2.55;;;0.95;;
78799;SDS011;68148;55.328;86.106;2023-04-07T09:41:04;1.33;;;0.82;;
78799;SDS011;68148;55.328;86.106;2023-04-07T09:43:39;4.00;;;2.08;;
78799;SDS011;68148;55.328;86.106;2023-04-07T09:46:10;5.50;;;0.70;;
78799;SDS011;68148;55.328;86.106;2023-04-07T09:48:38;9.85;;;2.15;;
78799;SDS011;68148;55.328;86.106;2023-04-07T09:51:04;5.68;;;1.27;;
78799;SDS011;68148;55.328;86.106;2023-04-07T09:56:14;7.18;;;1.75;;
78799;SDS011;68148;55.328;86.106;2023-04-07T09:58:42;8.85;;;1.25;;
78799;SDS011;68148;55.328;86.106;2023-04-07T10:01:12;8.80;;;1.63;;
78799;SDS011;68148;55.328;86.106;2023-04-07T10:03:40;8.02;;;3.30;;
78799;SDS011;68148;55.328;86.106;2023-04-07T10:06:05;1.85;;;0.77;;
78799;SDS011;68148;55.328;86.106;2023-04-07T10:08:33;2.13;;;0.90;;
78799;SDS011;68148;55.328;86.106;2023-04-07T10:11:00;6.43;;;1.10;;
78799;SDS011;68148;55.328;86.106;2023-04-07T10:13:26;3.67;;;1.25;;
78799;SDS011;68148;55.328;86.106;2023-04-07T10:15:53;1.92;;;0.70;;
78799;SDS011;68148;55.328;86.106;2023-04-07T10:18:21;5.07;;;1.25;;
78799;SDS011;68148;55.328;86.106;2023-04-07T10:20:51;2.03;;;1.00;;
78799;SDS011;68148;55.328;86.106;2023-04-07T10:23:24;10.55;;;3.33;;
78799;SDS011;68148;55.328;86.106;2023-04-07T10:26:06;6.30;;;2.00;;
78799;SDS011;68148;55.328;86.106;2023-04-07T10:28:32;4.68;;;1.45;;
78799;SDS011;68148;55.328;86.106;2023-04-07T10:31:06;10.25;;;2.28;;
78799;SDS011;68148;55.328;86.106;2023-04-07T10:33:49;5.93;;;1.50;;
78799;SDS011;68148;55.328;86.106;2023-04-07T10:36:17;7.90;;;2.10;;
78799;SDS011;68148;55.328;86.106;2023-04-07T10:41:31;6.30;;;1.00;;
78799;SDS011;68148;55.328;86.106;2023-04-07T10:43:58;7.07;;;2.33;;
78799;SDS011;68148;55.328;86.106;2023-04-07T10:46:24;4.25;;;0.90;;
78799;SDS011;68148;55.328;86.106;2023-04-07T10:49:07;1.92;;;1.05;;
78799;SDS011;68148;55.328;86.106;2023-04-07T10:51:34;9.30;;;3.05;;
78799;SDS011;68148;55.328;86.106;2023-04-07T10:54:15;9.63;;;3.00;;
78799;SDS011;68148;55.328;86.106;2023-04-07T10:59:32;5.35;;;1.55;;
78799;SDS011;68148;55.328;86.106;2023-04-07T11:02:43;5.05;;;1.27;;
78799;SDS011;68148;55.328;86.106;2023-04-07T11:04:48;7.20;;;1.52;;
78799;SDS011;68148;55.328;86.106;2023-04-07T11:07:14;4.25;;;1.52;;
78799;SDS011;68148;55.328;86.106;2023-04-07T11:09:40;3.50;;;1.60;;
78799;SDS011;68148;55.328;86.106;2023-04-07T11:12:06;8.57;;;1.65;;
78799;SDS011;68148;55.328;86.106;2023-04-07T11:14:33;6.35;;;1.42;;
78799;SDS011;68148;55.328;86.106;2023-04-07T11:17:00;7.10;;;2.63;;
78799;SDS011;68148;55.328;86.106;2023-04-07T11:19:28;6.43;;;1.95;;
78799;SDS011;68148;55.328;86.106;2023-04-07T11:22:13;7.38;;;2.80;;
78799;SDS011;68148;55.328;86.106;2023-04-07T11:24:42;2.92;;;1.17;;
78799;SDS011;68148;55.328;86.106;2023-04-07T11:29:39;5.53;;;2.08;;
78799;SDS011;68148;55.328;86.106;2023-04-07T11:32:05;10.52;;;3.38;;
78799;SDS011;68148;55.328;86.106;2023-04-07T11:34:31;6.57;;;2.20;;
78799;SDS011;68148;55.328;86.106;2023-04-07T11:39:52;9.15;;;2.92;;
78799;SDS011;68148;55.328;86.106;2023-04-07T11:42:31;5.97;;;1.92;;
78799;SDS011;68148;55.328;86.106;2023-04-07T11:44:59;5.00;;;1.63;;
78799;SDS011;68148;55.328;86.106;2023-04-07T11:47:34;4.65;;;2.00;;
78799;SDS011;68148;55.328;86.106;2023-04-07T11:50:00;4.78;;;1.50;;
78799;SDS011;68148;55.328;86.106;2023-04-07T11:52:26;11.95;;;2.28;;
78799;SDS011;68148;55.328;86.106;2023-04-07T11:54:52;6.78;;;2.47;;
78799;SDS011;68148;55.328;86.106;2023-04-07T11:57:25;17.52;;;5.00;;
78799;SDS011;68148;55.328;86.106;2023-04-07T12:00:04;5.22;;;1.90;;
78799;SDS011;68148;55.328;86.106;2023-04-07T12:02:33;14.15;;;3.53;;
78799;SDS011;68148;55.328;86.106;2023-04-07T12:04:59;4.90;;;2.60;;
78799;SDS011;68148;55.328;86.106;2023-04-07T12:07:25;9.00;;;2.70;;
78799;SDS011;68148;55.328;86.106;2023-04-07T12:09:54;10.43;;;2.88;;
78799;SDS011;68148;55.328;86.106;2023-04-07T12:12:26;4.57;;;1.20;;
78799;SDS011;68148;55.328;86.106;2023-04-07T12:14:53;7.75;;;2.35;;
78799;SDS011;68148;55.328;86.106;2023-04-07T12:17:26;13.18;;;2.40;;
78799;SDS011;68148;55.328;86.106;2023-04-07T12:19:52;8.75;;;2.60;;
78799;SDS011;68148;55.328;86.106;2023-04-07T12:22:18;11.43;;;3.47;;
78799;SDS011;68148;55.328;86.106;2023-04-07T12:24:44;7.07;;;2.00;;
78799;SDS011;68148;55.328;86.106;2023-04-07T12:27:10;3.63;;;1.23;;
78799;SDS011;68148;55.328;86.106;2023-04-07T12:29:36;7.20;;;2.75;;
78799;SDS011;68148;55.328;86.106;2023-04-07T12:32:05;9.48;;;2.20;;
78799;SDS011;68148;55.328;86.106;2023-04-07T12:34:31;4.43;;;1.30;;
78799;SDS011;68148;55.328;86.106;2023-04-07T12:36:56;8.98;;;2.65;;
78799;SDS011;68148;55.328;86.106;2023-04-07T12:39:23;12.32;;;4.57;;
78799;SDS011;68148;55.328;86.106;2023-04-07T12:41:49;6.25;;;1.80;;
78799;SDS011;68148;55.328;86.106;2023-04-07T12:44:15;7.50;;;2.97;;
78799;SDS011;68148;55.328;86.106;2023-04-07T12:46:41;12.10;;;3.65;;
78799;SDS011;68148;55.328;86.106;2023-04-07T12:49:07;8.52;;;2.63;;
78799;SDS011;68148;55.328;86.106;2023-04-07T12:51:33;3.85;;;1.60;;
78799;SDS011;68148;55.328;86.106;2023-04-07T12:53:59;4.30;;;1.38;;
78799;SDS011;68148;55.328;86.106;2023-04-07T12:56:25;6.60;;;2.03;;
78799;SDS011;68148;55.328;86.106;2023-04-07T12:58:51;7.38;;;2.20;;
78799;SDS011;68148;55.328;86.106;2023-04-07T13:01:17;20.55;;;6.35;;
78799;SDS011;68148;55.328;86.106;2023-04-07T13:03:42;6.07;;;2.65;;
78799;SDS011;68148;55.328;86.106;2023-04-07T13:06:08;14.88;;;4.40;;
78799;SDS011;68148;55.328;86.106;2023-04-07T13:08:34;10.18;;;3.40;;
78799;SDS011;68148;55.328;86.106;2023-04-07T13:11:00;6.68;;;2.25;;
78799;SDS011;68148;55.328;86.106;2023-04-07T13:13:26;15.02;;;4.63;;
78799;SDS011;68148;55.328;86.106;2023-04-07T13:15:52;9.55;;;3.60;;
78799;SDS011;68148;55.328;86.106;2023-04-07T13:18:18;20.17;;;4.97;;
78799;SDS011;68148;55.328;86.106;2023-04-07T13:20:44;13.45;;;3.90;;
78799;SDS011;68148;55.328;86.106;2023-04-07T13:23:10;10.98;;;3.78;;
78799;SDS011;68148;55.328;86.106;2023-04-07T13:25:36;14.15;;;4.53;;
78799;SDS011;68148;55.328;86.106;2023-04-07T13:28:02;8.05;;;2.67;;
78799;SDS011;68148;55.328;86.106;2023-04-07T13:30:28;15.50;;;5.65;;
78799;SDS011;68148;55.328;86.106;2023-04-07T13:32:54;10.35;;;2.63;;
78799;SDS011;68148;55.328;86.106;2023-04-07T13:35:21;4.65;;;1.90;;
78799;SDS011;68148;55.328;86.106;2023-04-07T13:37:46;6.95;;;2.63;;
78799;SDS011;68148;55.328;86.106;2023-04-07T13:40:12;5.43;;;1.83;;
78799;SDS011;68148;55.328;86.106;2023-04-07T13:42:38;7.55;;;2.88;;
78799;SDS011;68148;55.328;86.106;2023-04-07T13:45:04;9.07;;;3.38;;
78799;SDS011;68148;55.328;86.106;2023-04-07T13:47:32;11.30;;;4.22;;
78799;SDS011;68148;55.328;86.106;2023-04-07T13:50:01;4.15;;;1.25;;
78799;SDS011;68148;55.328;86.106;2023-04-07T13:52:28;7.63;;;2.20;;
78799;SDS011;68148;55.328;86.106;2023-04-07T13:54:54;8.38;;;2.72;;
78799;SDS011;68148;55.328;86.106;2023-04-07T13:57:20;10.93;;;3.97;;
78799;SDS011;68148;55.328;86.106;2023-04-07T13:59:46;11.40;;;2.72;;
78799;SDS011;68148;55.328;86.106;2023-04-07T14:02:14;25.92;;;6.57;;
78799;SDS011;68148;55.328;86.106;2023-04-07T14:04:40;9.60;;;3.50;;
78799;SDS011;68148;55.328;86.106;2023-04-07T14:07:07;14.02;;;4.60;;
78799;SDS011;68148;55.328;86.106;2023-04-07T14:09:36;8.50;;;3.83;;
78799;SDS011;68148;55.328;86.106;2023-04-07T14:12:05;7.95;;;3.55;;
78799;SDS011;68148;55.328;86.106;2023-04-07T14:14:31;10.30;;;3.15;;
78799;SDS011;68148;55.328;86.106;2023-04-07T14:16:56;12.80;;;3.10;;
78799;SDS011;68148;55.328;86.106;2023-04-07T14:19:22;9.70;;;3.72;;
78799;SDS011;68148;55.328;86.106;2023-04-07T14:21:49;12.25;;;3.20;;
78799;SDS011;68148;55.328;86.106;2023-04-07T14:24:15;5.55;;;2.00;;
78799;SDS011;68148;55.328;86.106;2023-04-07T14:26:42;7.53;;;2.85;;
78799;SDS011;68148;55.328;86.106;2023-04-07T14:29:09;11.60;;;3.88;;
78799;SDS011;68148;55.328;86.106;2023-04-07T14:31:38;9.80;;;3.35;;
78799;SDS011;68148;55.328;86.106;2023-04-07T14:34:04;8.82;;;3.15;;
78799;SDS011;68148;55.328;86.106;2023-04-07T14:36:30;1.33;;;1.08;;
78799;SDS011;68148;55.328;86.106;2023-04-07T14:38:56;10.70;;;2.80;;
78799;SDS011;68148;55.328;86.106;2023-04-07T14:41:22;11.40;;;3.85;;
78799;SDS011;68148;55.328;86.106;2023-04-07T14:43:48;12.35;;;4.72;;
78799;SDS011;68148;55.328;86.106;2023-04-07T14:46:14;6.68;;;2.90;;
78799;SDS011;68148;55.328;86.106;2023-04-07T14:48:40;9.05;;;3.03;;